Querinda Park, New Mexico
Current Conditions -  °F | °C
As of 9:55 AM on Friday 28 Nov 2014 (Local Time) from KAXX Reporting Station
Clear Clear  
Wind Chill: 35°   Ceiling: Unl
Heat Index: 41°   Visibility: 10mi
Dew Point:   Wind: 10mph
Humidity: 21%   Direction: 240°WSW
Pressure: 30.29"   Gusts: NA
Location:  36.7124°N, 105.403°W
Report Text: KAXX 281655Z AUTO 24009KT 10SM CLR 05/M16 A3029 RMK AO2 T00521158
Loading
Personal Weather Stations






























Interactive Weather Map New forecast layout! Learn more

10-Day Weather Forecast

Advertisements
Track Severe Weather on mobile